TimeEST,TemperatureF,Dew PointF,Humidity,Sea Level PressureIn,VisibilityMPH,Wind Direction,Wind SpeedMPH,Gust SpeedMPH,PrecipitationIn,Events,Conditions,WindDirDegrees,DateUTC
12:53 AM,32.0,16.0,52,30.04,10.0,Calm,Calm,-,N/A,,Clear,0,2013-03-05 05:53:00
1:53 AM,32.0,17.1,54,30.04,10.0,Variable,3.5,-,N/A,,Clear,0,2013-03-05 06:53:00
2:53 AM,30.9,16.0,54,30.04,10.0,Calm,Calm,-,N/A,,Clear,0,2013-03-05 07:53:00
3:53 AM,30.9,16.0,54,30.05,10.0,Calm,Calm,-,N/A,,Clear,0,2013-03-05 08:53:00
4:53 AM,30.0,15.1,54,30.06,10.0,Calm,Calm,-,N/A,,Clear,0,2013-03-05 09:53:00
5:53 AM,28.9,15.1,56,30.06,10.0,Calm,Calm,-,N/A,,Clear,0,2013-03-05 10:53:00
6:53 AM,28.0,14.0,56,30.07,10.0,Calm,Calm,-,N/A,,Clear,0,2013-03-05 11:53:00
7:53 AM,28.9,15.1,56,30.07,10.0,Calm,Calm,-,N/A,,Clear,0,2013-03-05 12:53:00
8:53 AM,34.0,12.9,42,30.06,10.0,Calm,Calm,-,N/A,,Clear,0,2013-03-05 13:53:00
9:53 AM,36.0,10.9,36,30.05,10.0,West,5.8,-,N/A,,Clear,270,2013-03-05 14:53:00
11:53 AM,43.0,12.0,28,30.03,10.0,West,6.9,-,N/A,,Clear,280,2013-03-05 16:53:00
12:53 PM,42.1,12.9,31,30.01,10.0,Variable,4.6,-,N/A,,Clear,0,2013-03-05 17:53:00
2:53 PM,46.9,17.1,30,29.94,10.0,Variable,4.6,-,N/A,,Clear,0,2013-03-05 19:53:00
3:53 PM,46.0,17.1,31,29.93,10.0,Variable,5.8,-,N/A,,Clear,0,2013-03-05 20:53:00
4:53 PM,44.1,21.9,42,29.94,10.0,Calm,Calm,-,N/A,,Clear,0,2013-03-05 21:53:00
5:53 PM,41.0,21.0,45,29.94,10.0,Calm,Calm,-,N/A,,Clear,0,2013-03-05 22:53:00
7:53 PM,39.0,23.0,53,29.93,10.0,NNE,4.6,-,N/A,,Mostly Cloudy,30,2013-03-06 00:53:00
8:53 PM,37.9,24.1,57,29.90,10.0,NNE,4.6,-,N/A,,Overcast,20,2013-03-06 01:53:00
9:53 PM,37.9,24.1,57,29.87,10.0,North,3.5,-,N/A,,Overcast,10,2013-03-06 02:53:00
10:53 PM,37.9,24.1,57,29.86,10.0,NNE,3.5,-,N/A,,Overcast,30,2013-03-06 03:53:00
11:53 PM,37.0,25.0,62,29.83,10.0,NNE,4.6,-,N/A,,Overcast,20,2013-03-06 04:53:00